Menu Close Menu
Station Historical Data
Daily Summary for May 9, 2017 Units:  English    Metric   Both
« Previous Day
Next Day »
Daily Weekly Monthly Yearly Custom
  High: Low: Average:
Temperature: 84.5 °F 57.2 °F 70.1 °F
Dew Point: 58.7 °F 49.3 °F 53.6 °F
Humidity: 82% 34% 59%
Wind Speed: 5.0mph 0.0mph 0.2mph
Wind Gust: 8.0mph - -
Wind- - WSW
Pressure: 30.10 in 29.98 in -
Precipitation: 0.00 in    
Historical Graphs
 
 
Tabular Data for May 9, 2017
Time Temperature Dew Point Pressure Wind Wind Speed Wind Gust Humidity Rainfall Rate (Hourly) solar Conditions
00:00 60.9 °F 52.2 °F 30.07 in Calm     73% 0.00 in WeatherDisplay:10.37 W/m2 SCT
00:15 60.9 °F 52.2 °F 30.07 in Calm     73% 0.00 in WeatherDisplay:10.37 W/m2 SCT
00:30 60.9 °F 52.2 °F 30.07 in Calm     73% 0.00 in WeatherDisplay:10.37 W/m2 SCT
00:45 60.9 °F 52.2 °F 30.07 in Calm     73% 0.00 in WeatherDisplay:10.37 W/m2 SCT
01:00 59.5 °F 51.6 °F 30.08 in Calm     75% 0.00 in WeatherDisplay:10.37 W/m2 SCT
01:15 59.1 °F 51.9 °F 30.08 in Calm     77% 0.00 in WeatherDisplay:10.37 W/m2 SCT
01:30 58.8 °F 51.6 °F 30.08 in Calm     77% 0.00 in WeatherDisplay:10.37 W/m2 SCT
01:45 58.7 °F 51.5 °F 30.08 in Calm     77% 0.00 in WeatherDisplay:10.37 W/m2 SCT
02:00 58.7 °F 51.9 °F 30.07 in Calm     78% 0.00 in WeatherDisplay:10.37 W/m2 SCT
02:15 58.7 °F 51.5 °F 30.07 in Calm     77% 0.00 in WeatherDisplay:10.37 W/m2 SCT
02:30 58.6 °F 51.4 °F 30.06 in Calm     77% 0.00 in WeatherDisplay:10.37 W/m2 SCT
02:45 58.8 °F 51.2 °F 30.06 in Calm     76% 0.00 in WeatherDisplay:10.37 W/m2 SCT
03:00 58.6 °F 51.4 °F 30.06 in Calm     77% 0.00 in WeatherDisplay:10.37 W/m2 SCT
03:15 59.0 °F 50.7 °F 30.06 in Calm     74% 0.00 in WeatherDisplay:10.37 W/m2 SCT
03:30 58.4 °F 50.5 °F 30.06 in Calm     75% 0.00 in WeatherDisplay:10.37 W/m2 SCT
03:45 59.0 °F 50.7 °F 30.06 in Calm     74% 0.00 in WeatherDisplay:10.37 W/m2 SCT
04:00 57.2 °F 49.3 °F 30.06 in Calm     75% 0.00 in WeatherDisplay:10.37 W/m2 SCT
04:15 57.2 °F 49.3 °F 30.06 in Calm     75% 0.00 in WeatherDisplay:10.37 W/m2 SCT
04:30 57.2 °F 49.3 °F 30.06 in Calm     75% 0.00 in WeatherDisplay:10.37 W/m2 SCT
04:45 57.2 °F 49.3 °F 30.06 in Calm     75% 0.00 in WeatherDisplay:10.37 W/m2 SCT
05:00 57.2 °F 49.3 °F 30.06 in Calm     75% 0.00 in WeatherDisplay:10.37 W/m2 SCT
05:15 57.2 °F 49.3 °F 30.05 in Calm     75% 0.00 in WeatherDisplay:10.37 W/m2 SCT
05:30 57.2 °F 49.3 °F 30.05 in Calm     75% 0.00 in WeatherDisplay:10.37 W/m2 SCT
05:45 57.2 °F 49.3 °F 30.05 in Calm     75% 0.00 in WeatherDisplay:10.37 W/m2 SCT
06:00 57.2 °F 49.3 °F 30.05 in Calm     75% 0.00 in WeatherDisplay:10.37 W/m2 SCT
06:15 57.2 °F 49.3 °F 30.05 in Calm     75% 0.00 in WeatherDisplay:10.37 W/m2 SCT
06:30 57.2 °F 49.3 °F 30.05 in Calm     75% 0.00 in WeatherDisplay:10.37 W/m2 SCT
06:45 57.2 °F 49.3 °F 30.06 in Calm     75% 0.00 in WeatherDisplay:10.37 W/m2 SCT
07:00 57.2 °F 49.3 °F 30.06 in Calm     75% 0.00 in WeatherDisplay:10.37 W/m2 SCT
07:15 57.2 °F 49.3 °F 30.06 in Calm     75% 0.00 in WeatherDisplay:10.37 W/m2 SCT
07:30 57.2 °F 49.3 °F 30.06 in Calm     75% 0.00 in WeatherDisplay:10.37 W/m2 SCT
07:45 57.2 °F 49.3 °F 30.07 in Calm     75% 0.00 in WeatherDisplay:10.37 W/m2 SCT
08:00 57.2 °F 49.3 °F 30.06 in Calm     75% 0.00 in WeatherDisplay:10.37 W/m2 SCT
08:15 60.5 °F 55.0 °F 30.08 in Calm     82% 0.00 in WeatherDisplay:10.37 W/m2 SCT
08:30 60.5 °F 55.0 °F 30.08 in Calm     82% 0.00 in WeatherDisplay:10.37 W/m2 SCT
08:45 63.3 °F 56.7 °F 30.08 in Calm     79% 0.00 in WeatherDisplay:10.37 W/m2 SCT
09:00 60.5 °F 55.0 °F 30.08 in Calm     82% 0.00 in WeatherDisplay:10.37 W/m2 SCT
09:15 68.4 °F 54.8 °F 30.09 in Calm   5.0 mph 62% 0.00 in WeatherDisplay:10.37 W/m2 SCT
09:30 70.8 °F 56.3 °F 30.09 in Calm   3.0 mph 60% 0.00 in WeatherDisplay:10.37 W/m2 SCT
09:45 71.3 °F 55.8 °F 30.09 in Calm   1.0 mph 58% 0.00 in WeatherDisplay:10.37 W/m2 SCT
10:00 71.3 °F 55.8 °F 30.09 in Calm     58% 0.00 in WeatherDisplay:10.37 W/m2 SCT
10:15 74.5 °F 55.7 °F 30.10 in Calm   2.0 mph 52% 0.00 in WeatherDisplay:10.37 W/m2 SCT
10:30 75.0 °F 56.7 °F 30.10 in Calm   2.0 mph 53% 0.00 in WeatherDisplay:10.37 W/m2 SCT
10:45 75.7 °F 56.8 °F 30.10 in WSW 1.0 mph 6.0 mph 52% 0.00 in WeatherDisplay:10.37 W/m2 SCT
11:00 76.8 °F 56.7 °F 30.10 in Calm   3.0 mph 50% 0.00 in WeatherDisplay:10.37 W/m2 SCT
11:15 77.7 °F 58.7 °F 30.10 in WNW 1.0 mph 3.0 mph 52% 0.00 in WeatherDisplay:10.37 W/m2 SCT
11:30 77.7 °F 55.3 °F 30.10 in Calm   3.0 mph 46% 0.00 in WeatherDisplay:10.37 W/m2 SCT
11:45 75.7 °F 56.8 °F 30.10 in WSW 1.0 mph 1.0 mph 52% 0.00 in WeatherDisplay:10.37 W/m2 SCT
12:00 75.7 °F 56.8 °F 30.10 in WSW 1.0 mph 1.0 mph 52% 0.00 in WeatherDisplay:10.37 W/m2 SCT
12:15 75.7 °F 56.8 °F 30.10 in WSW 1.0 mph 1.0 mph 52% 0.00 in WeatherDisplay:10.37 W/m2 SCT
12:30 80.9 °F 54.9 °F 30.10 in West 1.0 mph 5.0 mph 41% 0.00 in WeatherDisplay:10.37 W/m2 SCT
12:45 81.4 °F 56.7 °F 30.09 in Calm   3.0 mph 43% 0.00 in WeatherDisplay:10.37 W/m2 SCT
13:00 83.2 °F 58.4 °F 30.08 in Calm   3.0 mph 43% 0.00 in WeatherDisplay:10.37 W/m2 SCT
13:15 84.0 °F 55.7 °F 30.08 in WNW 1.0 mph 7.0 mph 38% 0.00 in WeatherDisplay:10.37 W/m2 SCT
13:30 84.5 °F 56.8 °F 30.08 in WSW 1.0 mph 2.0 mph 39% 0.00 in WeatherDisplay:10.37 W/m2 SCT
13:45 83.7 °F 57.5 °F 30.07 in Calm   5.0 mph 41% 0.00 in WeatherDisplay:10.37 W/m2 SCT
14:00 83.7 °F 57.5 °F 30.07 in Calm     41% 0.00 in WeatherDisplay:10.37 W/m2 SCT
14:15 83.7 °F 57.5 °F 30.07 in Calm     41% 0.00 in WeatherDisplay:10.37 W/m2 SCT
14:30 83.7 °F 57.5 °F 30.07 in Calm     41% 0.00 in WeatherDisplay:10.37 W/m2 SCT
14:45 83.8 °F 54.0 °F 30.05 in WNW 1.0 mph 3.0 mph 36% 0.00 in WeatherDisplay:10.37 W/m2 SCT
15:00 84.1 °F 55.0 °F 30.05 in Calm   5.0 mph 37% 0.00 in WeatherDisplay:10.37 W/m2 SCT
15:15 83.4 °F 53.6 °F 30.05 in WSW 1.0 mph 5.0 mph 36% 0.00 in WeatherDisplay:10.37 W/m2 SCT
15:30 84.1 °F 53.5 °F 30.05 in Calm   2.0 mph 35% 0.00 in WeatherDisplay:10.37 W/m2 SCT
15:45 82.7 °F 54.5 °F 30.03 in Calm   8.0 mph 38% 0.00 in WeatherDisplay:10.37 W/m2 SCT
16:00 82.7 °F 54.5 °F 30.02 in Calm   5.0 mph 38% 0.00 in WeatherDisplay:10.37 W/m2 SCT
16:15 82.9 °F 54.7 °F 30.02 in NW 1.0 mph 2.0 mph 38% 0.00 in WeatherDisplay:10.37 W/m2 SCT
16:30 82.7 °F 53.8 °F 30.04 in SSW 1.0 mph 5.0 mph 37% 0.00 in WeatherDisplay:10.37 W/m2 SCT
16:45 82.6 °F 53.7 °F 30.01 in South 5.0 mph 5.0 mph 37% 0.00 in WeatherDisplay:10.37 W/m2 SCT
17:00 83.0 °F 52.5 °F 30.01 in Calm   5.0 mph 35% 0.00 in WeatherDisplay:10.37 W/m2 SCT
17:15 83.2 °F 51.9 °F 30.00 in Calm   3.0 mph 34% 0.00 in WeatherDisplay:10.37 W/m2 SCT
17:30 82.8 °F 53.1 °F 30.00 in Calm   3.0 mph 36% 0.00 in WeatherDisplay:10.37 W/m2 SCT
17:45 82.7 °F 51.5 °F 30.01 in Calm     34% 0.00 in WeatherDisplay:10.37 W/m2 SCT
18:00 82.7 °F 51.5 °F 30.01 in Calm     34% 0.00 in WeatherDisplay:10.37 W/m2 SCT
18:15 82.7 °F 51.5 °F 30.01 in Calm     34% 0.00 in WeatherDisplay:10.37 W/m2 SCT
18:30 80.8 °F 53.6 °F 29.99 in Calm   2.0 mph 39% 0.00 in WeatherDisplay:10.37 W/m2 SCT
18:45 80.2 °F 53.7 °F 29.98 in Calm   2.0 mph 40% 0.00 in WeatherDisplay:10.37 W/m2 SCT
19:00 79.6 °F 54.5 °F 29.99 in Calm   2.0 mph 42% 0.00 in WeatherDisplay:10.37 W/m2 SCT
19:15 79.1 °F 55.3 °F 29.99 in Calm     44% 0.00 in WeatherDisplay:10.37 W/m2 SCT
19:30 78.6 °F 54.2 °F 29.98 in Calm   1.0 mph 43% 0.00 in WeatherDisplay:10.37 W/m2 SCT
19:45 77.4 °F 54.4 °F 29.98 in Calm     45% 0.00 in WeatherDisplay:10.37 W/m2 SCT
20:00 76.4 °F 54.6 °F 29.99 in Calm     47% 0.00 in WeatherDisplay:10.37 W/m2 SCT
20:15 76.1 °F 54.4 °F 29.99 in Calm     47% 0.00 in WeatherDisplay:10.37 W/m2 SCT
20:30 74.5 °F 55.7 °F 30.00 in Calm     52% 0.00 in WeatherDisplay:10.37 W/m2 SCT
20:45 74.5 °F 55.7 °F 30.00 in Calm     52% 0.00 in WeatherDisplay:10.37 W/m2 SCT
21:00 74.5 °F 55.7 °F 30.00 in Calm     52% 0.00 in WeatherDisplay:10.37 W/m2 SCT
21:15 71.3 °F 55.3 °F 30.00 in Calm     57% 0.00 in WeatherDisplay:10.37 W/m2 SCT
21:30 70.4 °F 55.4 °F 30.00 in Calm     59% 0.00 in WeatherDisplay:10.37 W/m2 SCT
21:45 69.5 °F 55.0 °F 30.01 in Calm     60% 0.00 in WeatherDisplay:10.37 W/m2 SCT
22:00 68.5 °F 55.0 °F 30.01 in Calm     62% 0.00 in WeatherDisplay:10.37 W/m2 SCT
22:15 67.9 °F 55.7 °F 30.01 in Calm     65% 0.00 in WeatherDisplay:10.37 W/m2 SCT
22:30 67.1 °F 55.4 °F 30.01 in Calm     66% 0.00 in WeatherDisplay:10.37 W/m2 SCT
22:45 66.7 °F 55.4 °F 30.02 in Calm     67% 0.00 in WeatherDisplay:10.37 W/m2 SCT
23:00 66.3 °F 55.8 °F 30.02 in Calm     69% 0.00 in WeatherDisplay:10.37 W/m2 SCT
23:15 66.3 °F 56.2 °F 30.02 in Calm     70% 0.00 in WeatherDisplay:10.37 W/m2 SCT
23:30 65.8 °F 55.7 °F 30.02 in Calm     70% 0.00 in WeatherDisplay:10.37 W/m2 SCT
23:45 65.8 °F 56.2 °F 30.02 in Calm     71% 0.00 in WeatherDisplay:10.37 W/m2 SCT
Piedmont Bend
Compliments of Weather Underground - 4 mb